createdAt,value
2022-11-07T00:01:12.940Z,99389.22
2022-11-07T00:03:40.331Z,99385.13
2022-11-07T00:06:07.482Z,99380.56
2022-11-07T00:08:34.717Z,99379.56
2022-11-07T00:11:02.275Z,99385.44
2022-11-07T00:13:29.502Z,99391.37
2022-11-07T00:16:04.378Z,99387.88
2022-11-07T00:18:31.780Z,99388.47
2022-11-07T00:21:05.382Z,99391.25
2022-11-07T00:23:32.812Z,99399.69
2022-11-07T00:26:07.676Z,99401.59
2022-11-07T00:28:35.589Z,99404.22
2022-11-07T00:31:02.768Z,99406.81
2022-11-07T00:33:29.895Z,99408.44
2022-11-07T00:35:57.294Z,99417.09
2022-11-07T00:38:24.443Z,99414.59
2022-11-07T00:41:01.679Z,99423.97
2022-11-07T00:43:29.318Z,99411.03
2022-11-07T00:45:56.596Z,99409.16
2022-11-07T00:48:23.926Z,99407.41
2022-11-07T00:50:51.296Z,99413.19
2022-11-07T00:53:18.521Z,99405.31
2022-11-07T00:55:45.654Z,99399.37
2022-11-07T00:58:14.425Z,99408.19
2022-11-07T01:00:41.874Z,99402.47
2022-11-07T01:03:27.808Z,99406.63
2022-11-07T01:05:56.105Z,99412.78
2022-11-07T01:08:23.240Z,99414.59
2022-11-07T01:10:50.373Z,99408.28
2022-11-07T01:13:17.812Z,99415.13
2022-11-07T01:15:44.992Z,99407.75
2022-11-07T01:18:12.267Z,99415.59
2022-11-07T01:20:40.949Z,99410.16
2022-11-07T01:23:08.160Z,99405.81
2022-11-07T01:25:38.500Z,99404.91
2022-11-07T01:28:06.561Z,99405.03
2022-11-07T01:30:33.682Z,99407.53
2022-11-07T01:33:01.243Z,99400.88
2022-11-07T01:35:28.624Z,99409.34
2022-11-07T01:37:55.756Z,99405.78
2022-11-07T01:40:22.860Z,99406.34
2022-11-07T01:42:50.244Z,99416.16
2022-11-07T01:45:24.522Z,99408.13
2022-11-07T01:47:51.989Z,99408.69
2022-11-07T01:50:19.117Z,99415.47
2022-11-07T01:52:46.835Z,99413.69
2022-11-07T01:55:21.689Z,99415.22
2022-11-07T01:57:54.475Z,99419.81
2022-11-07T02:00:22.181Z,99415.28
2022-11-07T02:02:51.379Z,99406.22
2022-11-07T02:05:21.171Z,99408.91
2022-11-07T02:07:48.294Z,99419.56
2022-11-07T02:10:15.691Z,99416.84
2022-11-07T02:12:42.842Z,99418.56
2022-11-07T02:15:10.295Z,99419.38
2022-11-07T02:17:37.716Z,99411.44
2022-11-07T02:20:05.148Z,99412.13
2022-11-07T02:22:40.352Z,99414.78
2022-11-07T02:25:09.084Z,99412.34
2022-11-07T02:27:36.236Z,99420.00
2022-11-07T02:30:08.004Z,99406.91
2022-11-07T02:32:35.428Z,99412.06
2022-11-07T02:35:03.759Z,99410.41
2022-11-07T02:37:34.779Z,99413.41
2022-11-07T02:40:04.094Z,99403.41
2022-11-07T02:42:43.376Z,99400.69
2022-11-07T02:45:14.567Z,99396.56
2022-11-07T02:47:41.946Z,99400.00
2022-11-07T02:50:10.421Z,99396.34
2022-11-07T02:52:37.793Z,99403.41
2022-11-07T02:55:05.736Z,99403.41
2022-11-07T02:57:51.681Z,99401.56
2022-11-07T03:00:19.063Z,99403.22
2022-11-07T03:02:49.169Z,99391.31
2022-11-07T03:05:16.930Z,99401.59
2022-11-07T03:07:44.683Z,99397.53
2022-11-07T03:10:11.970Z,99393.34
2022-11-07T03:12:39.094Z,99397.91
2022-11-07T03:15:07.111Z,99398.37
2022-11-07T03:17:34.450Z,99395.56
2022-11-07T03:20:01.729Z,99399.31
2022-11-07T03:22:29.144Z,99403.41
2022-11-07T03:24:56.263Z,99404.19
2022-11-07T03:27:23.431Z,99403.59
2022-11-07T03:29:50.810Z,99411.44
2022-11-07T03:32:17.946Z,99402.75
2022-11-07T03:34:45.109Z,99405.38
2022-11-07T03:37:12.487Z,99410.09
2022-11-07T03:39:39.599Z,99403.16
2022-11-07T03:42:06.704Z,99415.50
2022-11-07T03:44:34.105Z,99405.03
2022-11-07T03:47:01.238Z,99404.03
2022-11-07T03:49:28.370Z,99413.56
2022-11-07T03:51:55.793Z,99409.06
2022-11-07T03:54:22.908Z,99408.78
2022-11-07T03:56:50.017Z,99413.69
2022-11-07T03:59:17.404Z,99415.28
2022-11-07T04:01:45.582Z,99416.94
2022-11-07T04:04:13.278Z,99424.16
2022-11-07T04:06:40.464Z,99429.47
2022-11-07T04:09:07.976Z,99434.81
2022-11-07T04:11:54.222Z,99436.78
2022-11-07T04:14:40.007Z,99445.09
2022-11-07T04:17:19.817Z,99438.00
2022-11-07T04:19:47.429Z,99429.69
2022-11-07T04:22:14.878Z,99427.59
2022-11-07T04:24:45.777Z,99425.34
2022-11-07T04:27:32.853Z,99427.59
2022-11-07T04:30:19.209Z,99430.00
2022-11-07T04:32:47.269Z,99427.22
2022-11-07T04:35:14.954Z,99424.41
2022-11-07T04:37:42.148Z,99427.06
2022-11-07T04:40:10.133Z,99420.00
2022-11-07T04:42:37.535Z,99417.81
2022-11-07T04:45:04.847Z,99419.59
2022-11-07T04:47:34.220Z,99412.41
2022-11-07T04:50:04.561Z,99414.16
2022-11-07T04:52:31.666Z,99418.56
2022-11-07T04:54:58.804Z,99419.53
2022-11-07T04:57:26.192Z,99420.41
2022-11-07T04:59:53.378Z,99424.16
2022-11-07T05:02:20.619Z,99421.13
2022-11-07T05:04:48.104Z,99421.72
2022-11-07T05:07:15.232Z,99425.34
2022-11-07T05:09:42.374Z,99429.06
2022-11-07T05:12:09.753Z,99429.28
2022-11-07T05:14:36.865Z,99431.13
2022-11-07T05:17:04.042Z,99439.03
2022-11-07T05:19:31.436Z,99427.69
2022-11-07T05:22:17.099Z,99428.50
2022-11-07T05:24:44.500Z,99424.88
2022-11-07T05:27:18.639Z,99431.28
2022-11-07T05:29:46.369Z,99421.34
2022-11-07T05:32:13.645Z,99429.94
2022-11-07T05:34:40.780Z,99424.63
2022-11-07T05:37:08.728Z,99421.34
2022-11-07T05:39:36.062Z,99423.00
2022-11-07T05:42:03.497Z,99435.72
2022-11-07T05:44:30.974Z,99435.63
2022-11-07T05:46:58.469Z,99445.16
2022-11-07T05:49:25.704Z,99464.66
2022-11-07T05:51:53.359Z,99470.72
2022-11-07T05:54:20.503Z,99469.91
2022-11-07T05:56:47.686Z,99472.09
2022-11-07T05:59:15.202Z,99489.16
2022-11-07T06:01:42.457Z,99484.63
2022-11-07T06:04:09.880Z,99485.78
2022-11-07T06:06:37.029Z,99481.31
2022-11-07T06:09:04.172Z,99481.81
2022-11-07T06:11:31.989Z,99488.94
2022-11-07T06:13:59.187Z,99489.31
2022-11-07T06:16:26.926Z,99491.66
2022-11-07T06:18:54.308Z,99492.97
2022-11-07T06:21:21.483Z,99507.63
2022-11-07T06:23:48.612Z,99515.34
2022-11-07T06:26:16.054Z,99528.28
2022-11-07T06:28:43.282Z,99521.37
2022-11-07T06:31:10.509Z,99520.91
2022-11-07T06:33:37.899Z,99533.25
2022-11-07T06:36:09.219Z,99544.06
2022-11-07T06:38:36.522Z,99545.22
2022-11-07T06:41:04.718Z,99545.16
2022-11-07T06:43:33.812Z,99546.31
2022-11-07T06:46:05.055Z,99541.09
2022-11-07T06:48:32.720Z,99548.81
2022-11-07T06:51:00.324Z,99540.88
2022-11-07T06:53:27.836Z,99546.69
2022-11-07T06:55:55.208Z,99552.97
2022-11-07T06:58:22.557Z,99556.72
2022-11-07T07:00:49.736Z,99560.00
2022-11-07T07:03:17.935Z,99555.44
2022-11-07T07:05:45.493Z,99553.31
2022-11-07T07:08:13.109Z,99556.66
2022-11-07T07:10:41.169Z,99559.50
2022-11-07T07:13:08.285Z,99566.94
2022-11-07T07:15:49.865Z,99564.75
2022-11-07T07:18:19.406Z,99569.31
2022-11-07T07:20:47.189Z,99571.28
2022-11-07T07:23:14.294Z,99573.63
2022-11-07T07:25:41.698Z,99563.62
2022-11-07T07:28:08.806Z,99570.56
2022-11-07T07:30:35.913Z,99572.59
2022-11-07T07:33:03.290Z,99571.75
2022-11-07T07:35:30.410Z,99572.88
2022-11-07T07:37:57.714Z,99577.22
2022-11-07T07:40:25.202Z,99576.41
2022-11-07T07:42:52.344Z,99578.19
2022-11-07T07:45:19.635Z,99574.03
2022-11-07T07:47:47.057Z,99585.50
2022-11-07T07:50:15.063Z,99584.38
2022-11-07T07:52:42.178Z,99592.78
2022-11-07T07:55:10.219Z,99596.97
2022-11-07T07:57:41.210Z,99586.03
2022-11-07T08:00:08.713Z,99583.38
2022-11-07T08:02:39.311Z,99584.75
2022-11-07T08:05:06.908Z,99593.41
2022-11-07T08:07:34.075Z,99580.13
2022-11-07T08:10:27.312Z,99583.84
2022-11-07T08:12:50.747Z,99582.09
2022-11-07T08:15:18.355Z,99588.44
2022-11-07T08:17:45.609Z,99581.78
2022-11-07T08:20:13.923Z,99575.19
2022-11-07T08:22:41.034Z,99577.03
2022-11-07T08:25:08.892Z,99579.91
2022-11-07T08:27:36.478Z,99583.00
2022-11-07T08:30:04.604Z,99571.88
2022-11-07T08:32:31.753Z,99569.66
2022-11-07T08:34:59.124Z,99578.06
2022-11-07T08:37:26.252Z,99568.31
2022-11-07T08:39:53.376Z,99577.59
2022-11-07T08:42:20.741Z,99582.94
2022-11-07T08:44:47.878Z,99579.34
2022-11-07T08:47:14.995Z,99583.28
2022-11-07T08:49:42.384Z,99582.87
2022-11-07T08:52:09.512Z,99581.00
2022-11-07T08:54:36.627Z,99581.00
2022-11-07T08:57:04.033Z,99586.81
2022-11-07T08:59:31.134Z,99587.53
2022-11-07T09:02:44.681Z,99588.44
2022-11-07T09:04:46.034Z,99600.34
2022-11-07T09:07:13.331Z,99588.25
2022-11-07T09:09:40.469Z,99586.28
2022-11-07T09:12:07.943Z,99594.12
2022-11-07T09:14:35.070Z,99597.66
2022-11-07T09:17:02.201Z,99597.37
2022-11-07T09:19:29.578Z,99599.53
2022-11-07T09:21:57.206Z,99609.22
2022-11-07T09:24:24.319Z,99611.03
2022-11-07T09:26:51.705Z,99603.84
2022-11-07T09:29:18.881Z,99611.72
2022-11-07T09:31:45.992Z,99614.09
2022-11-07T09:34:13.429Z,99611.78
2022-11-07T09:36:40.527Z,99604.91
2022-11-07T09:39:07.668Z,99609.94
2022-11-07T09:41:38.032Z,99609.56
2022-11-07T09:44:05.194Z,99606.22
2022-11-07T09:46:34.133Z,99610.97
2022-11-07T09:49:20.504Z,99615.97
2022-11-07T09:51:48.192Z,99609.31
2022-11-07T09:54:17.086Z,99599.53
2022-11-07T09:56:44.257Z,99595.56
2022-11-07T09:59:32.089Z,99596.47
2022-11-07T10:01:59.507Z,99607.22
2022-11-07T10:04:27.424Z,99595.13
2022-11-07T10:06:56.777Z,99603.13
2022-11-07T10:09:42.334Z,99596.41
2022-11-07T10:12:31.137Z,99595.13
2022-11-07T10:15:15.144Z,99595.00
2022-11-07T10:17:46.583Z,99597.25
2022-11-07T10:20:23.486Z,99592.09
2022-11-07T10:22:56.339Z,99592.16
2022-11-07T10:25:25.210Z,99591.81
2022-11-07T10:28:08.717Z,99591.22
2022-11-07T10:30:35.870Z,99593.09
2022-11-07T10:33:09.357Z,99590.44
2022-11-07T10:35:37.697Z,99597.09
2022-11-07T10:38:37.565Z,99587.94
2022-11-07T10:41:07.648Z,99592.16
2022-11-07T10:43:36.511Z,99587.03
2022-11-07T10:46:04.886Z,99585.44
2022-11-07T10:48:33.213Z,99581.47
2022-11-07T10:51:00.642Z,99580.09
2022-11-07T10:53:29.100Z,99570.31
2022-11-07T10:55:56.443Z,99564.41
2022-11-07T10:58:27.472Z,99569.91
2022-11-07T11:01:04.011Z,99567.16
2022-11-07T11:03:43.626Z,99554.16
2022-11-07T11:06:31.532Z,99549.66
2022-11-07T11:08:59.330Z,99552.84
2022-11-07T11:11:31.251Z,99551.25
2022-11-07T11:14:11.122Z,99550.34
2022-11-07T11:16:38.947Z,99546.38
2022-11-07T11:19:06.868Z,99544.31
2022-11-07T11:21:43.616Z,99532.81
2022-11-07T11:24:12.616Z,99537.66
2022-11-07T11:26:40.500Z,99544.91
2022-11-07T11:29:12.116Z,99537.25
2022-11-07T11:31:40.897Z,99545.00
2022-11-07T11:34:13.034Z,99537.03
2022-11-07T11:36:41.511Z,99539.53
2022-11-07T11:39:16.490Z,99547.47
2022-11-07T11:41:57.076Z,99535.69
2022-11-07T11:44:26.585Z,99535.84
2022-11-07T11:46:56.011Z,99530.59
2022-11-07T11:49:25.195Z,99541.06
2022-11-07T11:51:52.267Z,99533.94
2022-11-07T11:54:19.655Z,99539.91
2022-11-07T11:56:53.579Z,99537.69
2022-11-07T11:59:23.944Z,99533.91
2022-11-07T12:02:09.172Z,99535.34
2022-11-07T12:04:42.454Z,99527.19
2022-11-07T12:07:32.801Z,99527.75
2022-11-07T12:10:07.731Z,99527.97
2022-11-07T12:12:46.532Z,99529.06
2022-11-07T12:15:18.141Z,99530.50
2022-11-07T12:17:48.374Z,99527.75
2022-11-07T12:20:18.704Z,99521.09
2022-11-07T12:22:52.785Z,99524.06
2022-11-07T12:25:25.041Z,99518.44
2022-11-07T12:27:58.605Z,99522.19
2022-11-07T12:30:41.360Z,99518.22
2022-11-07T12:33:11.284Z,99512.03
2022-11-07T12:35:45.837Z,99512.78
2022-11-07T12:38:18.973Z,99513.19
2022-11-07T12:40:49.267Z,99517.94
2022-11-07T12:43:36.591Z,99520.87
2022-11-07T12:46:23.033Z,99521.53
2022-11-07T12:48:58.805Z,99522.16
2022-11-07T12:51:45.089Z,99510.34
2022-11-07T12:54:30.405Z,99515.81
2022-11-07T12:56:58.065Z,99514.78
2022-11-07T12:59:28.578Z,99512.03
2022-11-07T13:01:55.790Z,99510.44
2022-11-07T13:04:34.857Z,99510.81
2022-11-07T13:07:05.002Z,99521.22
2022-11-07T13:09:51.278Z,99517.44
2022-11-07T13:12:23.909Z,99510.16
2022-11-07T13:14:51.413Z,99514.28
2022-11-07T13:17:19.953Z,99512.69
2022-11-07T13:20:00.472Z,99506.34
2022-11-07T13:22:35.654Z,99505.31
2022-11-07T13:25:07.545Z,99499.47
2022-11-07T13:27:37.880Z,99508.34
2022-11-07T13:30:14.582Z,99511.16
2022-11-07T13:32:42.996Z,99501.50
2022-11-07T13:35:21.282Z,99508.97
2022-11-07T13:37:51.019Z,99509.91
2022-11-07T13:40:31.530Z,99503.63
2022-11-07T13:42:59.765Z,99500.22
2022-11-07T13:45:27.973Z,99501.72
2022-11-07T13:47:56.108Z,99509.66
2022-11-07T13:50:24.129Z,99497.81
2022-11-07T13:52:51.181Z,99496.59
2022-11-07T13:55:19.150Z,99496.88
2022-11-07T13:57:53.965Z,99489.78
2022-11-07T14:00:21.467Z,99493.47
2022-11-07T14:02:53.273Z,99490.66
2022-11-07T14:05:34.728Z,99493.78
2022-11-07T14:08:02.125Z,99482.53
2022-11-07T14:10:34.241Z,99493.41
2022-11-07T14:13:01.578Z,99502.53
2022-11-07T14:15:28.709Z,99499.84
2022-11-07T14:17:55.841Z,99497.34
2022-11-07T14:20:23.223Z,99499.25
2022-11-07T14:22:51.780Z,99504.78
2022-11-07T14:25:20.994Z,99506.41
2022-11-07T14:27:48.393Z,99513.09
2022-11-07T14:30:16.291Z,99520.37
2022-11-07T14:32:47.692Z,99511.69
2022-11-07T14:35:15.864Z,99516.72
2022-11-07T14:37:42.976Z,99512.87
2022-11-07T14:40:10.329Z,99511.16
2022-11-07T14:42:38.219Z,99524.53
2022-11-07T14:45:05.643Z,99517.38
2022-11-07T14:47:33.300Z,99515.09
2022-11-07T14:50:01.848Z,99515.78
2022-11-07T14:52:35.139Z,99517.41
2022-11-07T14:55:07.233Z,99520.19
2022-11-07T14:57:37.996Z,99523.69
2022-11-07T15:00:19.552Z,99525.31
2022-11-07T15:02:49.285Z,99520.28
2022-11-07T15:05:23.783Z,99525.34
2022-11-07T15:07:51.904Z,99527.41
2022-11-07T15:10:30.727Z,99518.84
2022-11-07T15:13:02.060Z,99523.91
2022-11-07T15:15:30.814Z,99523.38
2022-11-07T15:17:58.863Z,99523.84
2022-11-07T15:20:33.414Z,99526.00
2022-11-07T15:23:23.481Z,99525.56
2022-11-07T15:25:53.123Z,99519.66
2022-11-07T15:28:30.419Z,99519.84
2022-11-07T15:31:00.814Z,99519.84
2022-11-07T15:33:32.221Z,99527.28
2022-11-07T15:36:00.076Z,99537.22
2022-11-07T15:38:28.250Z,99526.81
2022-11-07T15:40:55.491Z,99535.81
2022-11-07T15:43:22.736Z,99532.16
2022-11-07T15:45:50.728Z,99539.97
2022-11-07T15:48:19.187Z,99540.97
2022-11-07T15:50:48.950Z,99551.63
2022-11-07T15:53:23.276Z,99546.69
2022-11-07T15:55:54.308Z,99549.06
2022-11-07T15:58:23.109Z,99544.69
2022-11-07T16:00:50.556Z,99545.56
2022-11-07T16:03:18.548Z,99551.72
2022-11-07T16:05:46.086Z,99555.72
2022-11-07T16:08:14.319Z,99553.88
2022-11-07T16:10:52.346Z,99555.69
2022-11-07T16:13:19.852Z,99549.81
2022-11-07T16:15:48.263Z,99555.81
2022-11-07T16:18:16.367Z,99561.06
2022-11-07T16:20:43.947Z,99555.12
2022-11-07T16:23:11.390Z,99556.47
2022-11-07T16:25:42.339Z,99552.47
2022-11-07T16:28:21.774Z,99554.47
2022-11-07T16:30:49.301Z,99567.53
2022-11-07T16:33:16.648Z,99564.81
2022-11-07T16:35:43.878Z,99569.19
2022-11-07T16:38:12.369Z,99566.47
2022-11-07T16:40:39.654Z,99567.53
2022-11-07T16:43:25.388Z,99565.19
2022-11-07T16:45:54.175Z,99571.06
2022-11-07T16:48:26.274Z,99569.31
2022-11-07T16:50:54.068Z,99576.38
2022-11-07T16:53:21.400Z,99573.78
2022-11-07T16:55:53.524Z,99570.31
2022-11-07T16:58:24.299Z,99574.66
2022-11-07T17:00:52.334Z,99578.31
2022-11-07T17:03:19.628Z,99582.59
2022-11-07T17:05:47.166Z,99581.75
2022-11-07T17:08:43.782Z,99575.66
2022-11-07T17:11:15.848Z,99577.69
2022-11-07T17:13:43.760Z,99575.09
2022-11-07T17:16:21.608Z,99585.62
2022-11-07T17:18:49.854Z,99582.31
2022-11-07T17:21:46.767Z,99588.69
2022-11-07T17:24:14.467Z,99593.88
2022-11-07T17:26:42.292Z,99594.69
2022-11-07T17:29:13.637Z,99584.78
2022-11-07T17:31:41.729Z,99593.56
2022-11-07T17:34:09.796Z,99590.81
2022-11-07T17:36:38.486Z,99593.34
2022-11-07T17:39:08.276Z,99590.72
2022-11-07T17:41:36.271Z,99599.38
2022-11-07T17:44:04.274Z,99602.75
2022-11-07T17:46:33.049Z,99596.63
2022-11-07T17:49:01.832Z,99609.69
2022-11-07T17:51:29.299Z,99607.13
2022-11-07T17:53:57.343Z,99607.16
2022-11-07T17:56:25.732Z,99607.09
2022-11-07T17:58:53.808Z,99612.37
2022-11-07T18:01:22.313Z,99618.06
2022-11-07T18:03:52.224Z,99608.34
2022-11-07T18:06:23.621Z,99610.00
2022-11-07T18:08:52.814Z,99605.53
2022-11-07T18:11:21.205Z,99603.94
2022-11-07T18:13:52.245Z,99597.87
2022-11-07T18:16:21.539Z,99596.03
2022-11-07T18:18:49.326Z,99596.94
2022-11-07T18:21:16.948Z,99599.84
2022-11-07T18:23:45.311Z,99600.78
2022-11-07T18:26:17.030Z,99617.44
2022-11-07T18:28:45.293Z,99609.44
2022-11-07T18:31:14.021Z,99615.69
2022-11-07T18:33:44.878Z,99609.75
2022-11-07T18:36:17.593Z,99608.72
2022-11-07T18:38:45.434Z,99612.31
2022-11-07T18:41:19.161Z,99612.25
2022-11-07T18:43:47.103Z,99614.84
2022-11-07T18:46:16.121Z,99622.00
2022-11-07T18:48:43.307Z,99608.88
2022-11-07T18:51:21.687Z,99609.72
2022-11-07T18:53:50.002Z,99605.28
2022-11-07T18:56:17.393Z,99605.25
2022-11-07T18:58:45.524Z,99593.03
2022-11-07T19:01:14.294Z,99598.34
2022-11-07T19:03:42.295Z,99591.50
2022-11-07T19:06:14.284Z,99607.41
2022-11-07T19:08:42.752Z,99603.84
2022-11-07T19:11:12.141Z,99600.25
2022-11-07T19:13:40.765Z,99604.78
2022-11-07T19:16:09.246Z,99603.09
2022-11-07T19:18:36.821Z,99601.12
2022-11-07T19:21:05.547Z,99601.09
2022-11-07T19:23:35.311Z,99620.41
2022-11-07T19:26:03.486Z,99620.37
2022-11-07T19:28:31.211Z,99616.84
2022-11-07T19:31:02.475Z,99627.28
2022-11-07T19:33:30.467Z,99622.94
2022-11-07T19:35:59.717Z,99623.00
2022-11-07T19:38:29.032Z,99622.19
2022-11-07T19:40:56.421Z,99620.59
2022-11-07T19:43:24.410Z,99620.66
2022-11-07T19:45:55.564Z,99624.16
2022-11-07T19:48:24.038Z,99625.88
2022-11-07T19:50:52.021Z,99623.25
2022-11-07T19:53:21.911Z,99623.16
2022-11-07T19:55:49.633Z,99624.91
2022-11-07T19:58:17.628Z,99626.72
2022-11-07T20:00:46.453Z,99624.97
2022-11-07T20:03:14.952Z,99623.19
2022-11-07T20:05:43.026Z,99623.22
2022-11-07T20:08:14.200Z,99632.84
2022-11-07T20:10:45.795Z,99623.38
2022-11-07T20:13:14.087Z,99639.16
2022-11-07T20:15:42.354Z,99638.13
2022-11-07T20:18:13.096Z,99637.31
2022-11-07T20:20:41.167Z,99639.91
2022-11-07T20:23:10.405Z,99646.91
2022-11-07T20:25:42.792Z,99639.06
2022-11-07T20:28:11.013Z,99640.75
2022-11-07T20:30:40.972Z,99642.50
2022-11-07T20:33:08.209Z,99647.81
2022-11-07T20:35:36.148Z,99645.19
2022-11-07T20:38:06.070Z,99640.81
2022-11-07T20:40:33.737Z,99639.00
2022-11-07T20:43:02.193Z,99641.59
2022-11-07T20:45:30.026Z,99636.38
2022-11-07T20:48:00.632Z,99637.31
2022-11-07T20:50:40.477Z,99641.72
2022-11-07T20:53:07.779Z,99630.38
2022-11-07T20:55:39.194Z,99636.47
2022-11-07T20:58:06.833Z,99637.31
2022-11-07T21:00:34.577Z,99639.12
2022-11-07T21:03:03.241Z,99632.16
2022-11-07T21:05:30.736Z,99635.66
2022-11-07T21:07:58.176Z,99638.25
2022-11-07T21:10:26.810Z,99633.94
2022-11-07T21:12:54.499Z,99642.81
2022-11-07T21:15:21.854Z,99645.47
2022-11-07T21:17:49.252Z,99645.50
2022-11-07T21:20:16.872Z,99646.47
2022-11-07T21:22:48.281Z,99648.28
2022-11-07T21:25:17.208Z,99650.87
2022-11-07T21:27:45.016Z,99646.66
2022-11-07T21:30:13.305Z,99646.59
2022-11-07T21:32:41.222Z,99650.13
2022-11-07T21:35:09.280Z,99644.81
2022-11-07T21:37:42.458Z,99645.69
2022-11-07T21:40:10.795Z,99639.47
2022-11-07T21:42:38.278Z,99640.28
2022-11-07T21:45:05.608Z,99646.34
2022-11-07T21:47:33.143Z,99641.97
2022-11-07T21:50:00.891Z,99641.97
2022-11-07T21:52:31.072Z,99635.03
2022-11-07T21:54:58.492Z,99639.31
2022-11-07T21:57:26.224Z,99638.53
2022-11-07T21:59:53.444Z,99628.91
2022-11-07T22:02:20.916Z,99631.62
2022-11-07T22:04:48.315Z,99633.31
2022-11-07T22:07:15.486Z,99633.28
2022-11-07T22:09:43.080Z,99641.16
2022-11-07T22:12:10.914Z,99645.44
2022-11-07T22:14:41.142Z,99641.22
2022-11-07T22:17:12.044Z,99643.94
2022-11-07T22:19:39.859Z,99642.16
2022-11-07T22:22:06.990Z,99645.69
2022-11-07T22:24:34.153Z,99640.47
2022-11-07T22:27:01.559Z,99646.62
2022-11-07T22:29:28.679Z,99643.97
2022-11-07T22:31:58.346Z,99644.94
2022-11-07T22:34:25.740Z,99644.13
2022-11-07T22:36:55.524Z,99647.53
2022-11-07T22:39:22.662Z,99642.28
2022-11-07T22:41:50.030Z,99641.38
2022-11-07T22:44:17.133Z,99635.28
2022-11-07T22:46:44.271Z,99633.53
2022-11-07T22:49:11.667Z,99635.31
2022-11-07T22:51:38.770Z,99633.56
2022-11-07T22:54:07.043Z,99638.81
2022-11-07T22:56:35.245Z,99633.53
2022-11-07T22:59:02.561Z,99634.34
2022-11-07T23:01:30.657Z,99634.34
2022-11-07T23:03:58.091Z,99634.34
2022-11-07T23:06:25.431Z,99630.75
2022-11-07T23:08:52.867Z,99640.41
2022-11-07T23:14:08.871Z,99637.75
2022-11-07T23:16:37.109Z,99634.28
2022-11-07T23:19:05.590Z,99634.16
2022-11-07T23:21:32.725Z,99628.94
2022-11-07T23:24:00.132Z,99638.53
2022-11-07T23:26:33.682Z,99640.25
2022-11-07T23:29:10.474Z,99637.75
2022-11-07T23:31:45.595Z,99636.81
2022-11-07T23:34:13.538Z,99635.06
2022-11-07T23:36:44.282Z,99630.72
2022-11-07T23:39:16.654Z,99635.91
2022-11-07T23:41:45.428Z,99635.87
2022-11-07T23:44:13.660Z,99635.16
2022-11-07T23:46:59.810Z,99635.03
2022-11-07T23:49:46.572Z,99636.78
2022-11-07T23:52:14.629Z,99631.56
2022-11-07T23:55:01.285Z,99639.38
2022-11-07T23:57:29.201Z,99635.03
